Great Falls (GTF/KGTF)

Map

Destinations

Information

Location
Great Falls , MT
Local Time
12:17 / 12:17 pm
GMT Time
18:17 / 6:17 pm
Gates
Unassigned
No FAA reported delays
METAR KGTF 201753Z 22018G28KT 10SM BKN110 11/M02 A2954 RMK AO2 PK WND 23028/1734 SLP008 T01061017 10111 20061 55005
TAF KGTF 201720Z 2018/2118 22018G28KT P6SM FEW070 SCT200 FM210200 23010KT P6SM SCT050 BKN100 FM211600 24007KT P6SM FEW050 SCT110